Impacts METAR Board
IDs:

KBWI - Baltimore-Washington, MD, US

Updated at: 0900 UTC 17 Feb 2019
Potential Impact None Slight Moderate High
Time 16/21Z 16/22Z 16/23Z 17/00Z 17/01Z 17/02Z 17/03Z 17/04Z 17/05Z 17/06Z 17/07Z 17/08Z 17/09Z
Temp45 43 40 39 37 36 33 33 32 30 29 31 30
Dewpt21 19 19 19 19 19 20 19 20 20 20 20 19
Altim29.90 29.91 29.93 29.96 29.98 30.00 30.02 30.04 30.04 30.06 30.07 30.07 30.05
VIS10 10 10 10 10 10 10 10 10 10 10 10 10
CIG-- -- -- -- -- -- -- -- -- -- 250 250 --
CoverFEWCLRCLRCLRCLRCLRCLRCLRSCTFEWBKNBKNFEW
FltCatVFRVFRVFRVFRVFRVFRVFRVFRVFRVFRVFRVFRVFR
WX--------------------------
WDir3203500340330300320330340002020
WSpd8 9 4 5 3 3 5 5 3 0 0 5 4
WGst-- 17 -- -- -- -- -- -- -- -- -- -- --
Raw hourly METARs
KBWI 162054Z 32008KT 10SM FEW250 07/M06 A2990 RMK AO2 SLP125 T00721061 53002
KBWI 162154Z 35009G17KT 10SM CLR 06/M07 A2991 RMK AO2 SLP127 T00611072
KBWI 162254Z VRB04KT 10SM CLR 04/M07 A2993 RMK AO2 SLP136 T00441072
KBWI 162354Z 34005KT 10SM CLR 04/M07 A2996 RMK AO2 SLP147 T00391072 10083 20033 53022
KBWI 170054Z 33003KT 10SM CLR 03/M07 A2998 RMK AO2 SLP152 T00281072
KBWI 170154Z 30003KT 10SM CLR 02/M07 A3000 RMK AO2 SLP161 T00221072
KBWI 170254Z 32005KT 10SM CLR 01/M07 A3002 RMK AO2 SLP168 T00061067 53020
KBWI 170354Z 33005KT 10SM CLR 01/M07 A3004 RMK AO2 SLP173 T00061072
KBWI 170454Z 34003KT 10SM SCT250 00/M07 A3004 RMK AO2 SLP175 T00001067 401000000
KBWI 170554Z 00000KT 10SM FEW250 M01/M07 A3006 RMK AO2 SLP179 T10111067 10039 21017 51011
KBWI 170654Z 00000KT 10SM BKN250 M02/M07 A3007 RMK AO2 SLP182 T10171067
KBWI 170754Z 02005KT 10SM BKN250 M01/M07 A3007 RMK AO2 SLP181 T10061067
KBWI 170854Z 02004KT 10SM FEW250 M01/M07 A3005 RMK AO2 SLP177 T10111072 58001



Page loaded:  09:58 UTC  |   01:58 AM Pacific  |   02:58 AM Mountain  |   03:58 AM Central  |   04:58 AM Eastern

 

ADVISORIES

FORECASTS

FORECASTS

OBSERVATIONS

USER TOOLS

ABOUT US